OVO2254 ZBAA-ZYTL
Flight info
| Callsign | OVO2254 |
|---|---|
| Flight time | N/A |
| Altitude | 22600 |
| Route | MUGLO W34 ANRAT W575 INTIV |
| Aircraft | A319/M-SDE3FGHIRWY/LB1 |
Departure
| Time | 2026-05-05 15:08 |
|---|---|
| Airport | Beijing Capital International Airport (ZBAA) |
Arrival
| Time | N/A |
|---|---|
| Airport | Dalian Zhoushuizi International Airport (ZYTL) |
| Time | Latitude | Longitude | Altitude | Speed | Heading |
|---|---|---|---|---|---|
| 2026-05-05 14:43 | 40.07214 | 116.60512 | 120 ft | 0 kts | 83° |
| 2026-05-05 14:57 | 40.07212 | 116.60483 | 121 ft | 4 kts | 83° |
| 2026-05-05 14:58 | 40.07209 | 116.60448 | 120 ft | 4 kts | 83° |
| 2026-05-05 14:58 | 40.07205 | 116.60413 | 120 ft | 4 kts | 76° |
| 2026-05-05 14:58 | 40.07196 | 116.60382 | 119 ft | 4 kts | 43° |
| 2026-05-05 14:58 | 40.07185 | 116.60374 | 119 ft | 0 kts | 353° |
| 2026-05-05 15:00 | 40.07189 | 116.60373 | 120 ft | 2 kts | 353° |
| 2026-05-05 15:01 | 40.07219 | 116.60368 | 121 ft | 6 kts | 353° |
| 2026-05-05 15:01 | 40.07249 | 116.60351 | 123 ft | 5 kts | 309° |
| 2026-05-05 15:01 | 40.07252 | 116.60301 | 124 ft | 7 kts | 262° |
| 2026-05-05 15:01 | 40.07244 | 116.60232 | 124 ft | 9 kts | 260° |
| 2026-05-05 15:02 | 40.07237 | 116.60145 | 124 ft | 11 kts | 264° |
| 2026-05-05 15:02 | 40.07229 | 116.60041 | 122 ft | 11 kts | 263° |
| 2026-05-05 15:02 | 40.07270 | 116.59981 | 121 ft | 10 kts | 350° |
| 2026-05-05 15:02 | 40.07345 | 116.59969 | 121 ft | 11 kts | 353° |
| 2026-05-05 15:03 | 40.07427 | 116.59957 | 122 ft | 12 kts | 353° |
| 2026-05-05 15:03 | 40.07514 | 116.59944 | 121 ft | 13 kts | 353° |
| 2026-05-05 15:03 | 40.07607 | 116.59930 | 122 ft | 14 kts | 353° |
| 2026-05-05 15:03 | 40.07706 | 116.59913 | 122 ft | 15 kts | 353° |
| 2026-05-05 15:04 | 40.07810 | 116.59896 | 129 ft | 15 kts | 353° |
| 2026-05-05 15:04 | 40.07919 | 116.59879 | 124 ft | 16 kts | 353° |
| 2026-05-05 15:04 | 40.08036 | 116.59862 | 122 ft | 18 kts | 353° |
| 2026-05-05 15:04 | 40.08164 | 116.59843 | 123 ft | 19 kts | 353° |
| 2026-05-05 15:05 | 40.08451 | 116.59796 | 122 ft | 22 kts | 353° |
| 2026-05-05 15:05 | 40.08610 | 116.59770 | 124 ft | 24 kts | 353° |
| 2026-05-05 15:05 | 40.08770 | 116.59745 | 122 ft | 20 kts | 353° |
| 2026-05-05 15:06 | 40.08882 | 116.59728 | 124 ft | 9 kts | 353° |
| 2026-05-05 15:06 | 40.08947 | 116.59718 | 123 ft | 10 kts | 353° |
| 2026-05-05 15:06 | 40.08980 | 116.59652 | 124 ft | 10 kts | 269° |
| 2026-05-05 15:06 | 40.08962 | 116.59557 | 123 ft | 11 kts | 230° |
| 2026-05-05 15:07 | 40.08908 | 116.59500 | 122 ft | 6 kts | 212° |
| 2026-05-05 15:07 | 40.08863 | 116.59496 | 124 ft | 8 kts | 171° |
| 2026-05-05 15:07 | 40.08718 | 116.59522 | 121 ft | 45 kts | 173° |
| 2026-05-05 15:07 | 40.08222 | 116.59601 | 122 ft | 98 kts | 173° |
| 2026-05-05 15:08 | 40.07369 | 116.59732 | 123 ft | 147 kts | 173° |
| 2026-05-05 15:08 | 40.06312 | 116.59875 | 667 ft | 146 kts | 176° |
| 2026-05-05 15:08 | 40.05648 | 116.59951 | 1132 ft | 145 kts | 178° |
| 2026-05-05 15:08 | 40.04306 | 116.60154 | 1987 ft | 149 kts | 179° |
| 2026-05-05 15:09 | 40.03590 | 116.60268 | 2203 ft | 163 kts | 180° |
| 2026-05-05 15:09 | 40.01931 | 116.60526 | 2684 ft | 196 kts | 180° |
| 2026-05-05 15:09 | 40.00490 | 116.60748 | 3174 ft | 221 kts | 179° |
| 2026-05-05 15:09 | 39.99446 | 116.60910 | 3534 ft | 235 kts | 179° |
| 2026-05-05 15:10 | 39.97238 | 116.61269 | 4644 ft | 247 kts | 179° |
| 2026-05-05 15:10 | 39.95512 | 116.61553 | 5526 ft | 253 kts | 178° |
| 2026-05-05 15:10 | 39.94320 | 116.61747 | 6127 ft | 257 kts | 177° |
| 2026-05-05 15:10 | 39.92524 | 116.62035 | 6946 ft | 263 kts | 177° |
| 2026-05-05 15:11 | 39.90680 | 116.62327 | 7758 ft | 270 kts | 176° |
| 2026-05-05 15:11 | 39.88785 | 116.62627 | 8554 ft | 278 kts | 176° |
| 2026-05-05 15:11 | 39.86839 | 116.62933 | 9344 ft | 285 kts | 176° |
| 2026-05-05 15:11 | 39.84844 | 116.63246 | 10071 ft | 292 kts | 176° |
| 2026-05-05 15:12 | 39.82760 | 116.63567 | 10441 ft | 313 kts | 176° |
| 2026-05-05 15:12 | 39.80513 | 116.63902 | 10683 ft | 336 kts | 176° |
| 2026-05-05 15:12 | 39.78110 | 116.64259 | 10864 ft | 359 kts | 176° |
| 2026-05-05 15:12 | 39.75581 | 116.64637 | 11314 ft | 370 kts | 176° |
| 2026-05-05 15:13 | 39.72162 | 116.65159 | 12156 ft | 377 kts | 176° |
| 2026-05-05 15:13 | 39.70396 | 116.65432 | 12598 ft | 380 kts | 176° |
| 2026-05-05 15:13 | 39.67762 | 116.65840 | 13249 ft | 384 kts | 176° |
| 2026-05-05 15:13 | 39.65132 | 116.66267 | 13845 ft | 388 kts | 174° |
| 2026-05-05 15:14 | 39.62456 | 116.66845 | 14437 ft | 392 kts | 172° |
| 2026-05-05 15:14 | 39.59764 | 116.67540 | 15024 ft | 396 kts | 171° |
| 2026-05-05 15:14 | 39.57057 | 116.68292 | 15638 ft | 399 kts | 170° |
| 2026-05-05 15:14 | 39.54373 | 116.69313 | 16244 ft | 406 kts | 161° |
| 2026-05-05 15:15 | 39.51826 | 116.70935 | 16871 ft | 411 kts | 153° |
| 2026-05-05 15:15 | 39.49334 | 116.72767 | 17510 ft | 413 kts | 153° |
| 2026-05-05 15:15 | 39.46813 | 116.74580 | 18123 ft | 416 kts | 154° |
| 2026-05-05 15:15 | 39.44266 | 116.76385 | 18655 ft | 419 kts | 154° |
| 2026-05-05 15:16 | 39.42533 | 116.77604 | 18999 ft | 421 kts | 154° |